createdAt,value
2019-03-01T00:00:49.865Z,0.00
2019-03-01T00:01:49.987Z,0.00
2019-03-01T00:02:50.126Z,0.00
2019-03-01T00:03:50.254Z,0.00
2019-03-01T00:04:50.400Z,0.00
2019-03-01T00:05:50.508Z,0.00
2019-03-01T00:06:50.632Z,0.00
2019-03-01T00:07:50.766Z,0.00
2019-03-01T00:08:50.895Z,0.00
2019-03-01T00:09:51.036Z,0.00
2019-03-01T00:10:51.159Z,0.00
2019-03-01T00:11:51.286Z,0.00
2019-03-01T00:12:51.415Z,0.00
2019-03-01T00:13:51.548Z,0.00
2019-03-01T00:14:51.677Z,0.00
2019-03-01T00:15:51.816Z,0.00
2019-03-01T00:16:51.942Z,0.00
2019-03-01T00:17:52.072Z,0.00
2019-03-01T00:18:52.205Z,0.00
2019-03-01T00:19:52.349Z,0.00
2019-03-01T00:20:52.478Z,0.00
2019-03-01T00:21:52.599Z,0.00
2019-03-01T00:22:52.733Z,0.00
2019-03-01T00:23:52.857Z,0.00
2019-03-01T00:24:52.985Z,0.00
2019-03-01T00:25:53.123Z,0.00
2019-03-01T00:26:53.243Z,0.00
2019-03-01T00:27:53.367Z,0.00
2019-03-01T00:28:53.497Z,0.00
2019-03-01T00:29:53.629Z,0.00
2019-03-01T00:30:53.761Z,0.00
2019-03-01T00:31:53.884Z,0.00
2019-03-01T00:32:54.009Z,0.00
2019-03-01T00:33:54.137Z,0.00
2019-03-01T00:34:54.265Z,0.00
2019-03-01T00:35:54.398Z,0.00
2019-03-01T00:36:54.523Z,0.00
2019-03-01T00:37:54.654Z,0.00
2019-03-01T00:38:54.782Z,0.00
2019-03-01T00:39:54.928Z,0.00
2019-03-01T00:40:55.046Z,0.00
2019-03-01T00:41:55.170Z,0.00
2019-03-01T00:42:55.299Z,0.00
2019-03-01T00:43:55.427Z,0.00
2019-03-01T00:44:55.559Z,0.00
2019-03-01T00:45:55.685Z,0.00
2019-03-01T00:46:55.826Z,0.00
2019-03-01T00:47:55.946Z,0.00
2019-03-01T00:48:56.076Z,0.00
2019-03-01T00:49:56.200Z,0.00
2019-03-01T00:50:56.329Z,0.00
2019-03-01T00:51:56.460Z,0.00
2019-03-01T00:52:56.588Z,0.00
2019-03-01T00:53:56.710Z,0.00
2019-03-01T00:54:56.838Z,0.00
2019-03-01T00:55:56.975Z,0.00
2019-03-01T00:56:57.104Z,0.00
2019-03-01T00:57:57.222Z,0.00
2019-03-01T00:58:57.356Z,0.00
2019-03-01T00:59:57.478Z,0.00
2019-03-01T01:00:57.605Z,0.00
2019-03-01T01:01:57.732Z,0.00
2019-03-01T01:02:57.874Z,0.00
2019-03-01T01:03:57.998Z,0.00
2019-03-01T01:04:58.123Z,0.00
2019-03-01T01:05:58.251Z,0.00
2019-03-01T01:06:58.380Z,0.00
2019-03-01T01:07:58.511Z,0.00
2019-03-01T01:08:58.636Z,0.00
2019-03-01T01:09:58.763Z,0.00
2019-03-01T01:10:58.884Z,0.00
2019-03-01T01:11:59.010Z,0.00
2019-03-01T01:12:59.146Z,0.00
2019-03-01T01:13:59.273Z,0.00
2019-03-01T01:14:59.401Z,0.00
2019-03-01T01:15:59.532Z,0.00
2019-03-01T01:16:59.659Z,0.00
2019-03-01T01:17:59.795Z,0.00
2019-03-01T01:18:59.929Z,0.00
2019-03-01T01:20:00.056Z,0.00
2019-03-01T01:21:00.194Z,0.00
2019-03-01T01:22:00.314Z,0.00
2019-03-01T01:23:00.442Z,0.00
2019-03-01T01:24:00.567Z,0.00
2019-03-01T01:25:00.699Z,0.00
2019-03-01T01:26:00.823Z,0.00
2019-03-01T01:27:00.950Z,0.00
2019-03-01T01:28:01.082Z,0.00
2019-03-01T01:29:01.207Z,0.00
2019-03-01T01:30:01.341Z,0.00
2019-03-01T01:31:01.469Z,0.00
2019-03-01T01:32:01.588Z,0.00
2019-03-01T01:33:01.725Z,0.00
2019-03-01T01:34:01.843Z,0.00
2019-03-01T01:35:01.980Z,0.00
2019-03-01T01:36:02.116Z,0.00
2019-03-01T01:37:02.232Z,0.00
2019-03-01T01:38:02.365Z,0.00
2019-03-01T01:39:02.489Z,0.00
2019-03-01T01:40:02.618Z,0.00
2019-03-01T01:41:02.744Z,0.00
2019-03-01T01:42:02.868Z,0.00
2019-03-01T01:43:03.006Z,0.00
2019-03-01T01:44:03.133Z,0.00
2019-03-01T01:45:03.260Z,0.00
2019-03-01T01:46:03.389Z,0.00
2019-03-01T01:47:03.514Z,0.00
2019-03-01T01:48:03.632Z,0.00
2019-03-01T01:49:03.754Z,0.00
2019-03-01T01:50:03.887Z,0.00
2019-03-01T01:51:04.016Z,0.00
2019-03-01T01:52:04.144Z,0.00
2019-03-01T01:53:04.267Z,0.00
2019-03-01T01:54:04.394Z,0.00
2019-03-01T01:55:04.527Z,0.00
2019-03-01T01:56:04.651Z,0.00
2019-03-01T01:57:04.777Z,0.00
2019-03-01T01:58:04.904Z,0.00
2019-03-01T01:59:05.034Z,0.00
2019-03-01T02:00:05.183Z,0.00
2019-03-01T02:01:05.294Z,0.00
2019-03-01T02:02:05.421Z,0.00
2019-03-01T02:03:05.544Z,0.00
2019-03-01T02:04:05.671Z,0.00
2019-03-01T02:05:05.802Z,0.00
2019-03-01T02:06:05.927Z,0.00
2019-03-01T02:07:06.054Z,0.00
2019-03-01T02:08:06.179Z,0.00
2019-03-01T02:09:06.308Z,0.00
2019-03-01T02:10:06.432Z,0.00
2019-03-01T02:11:06.563Z,0.00
2019-03-01T02:12:06.688Z,0.00
2019-03-01T02:13:06.819Z,0.00
2019-03-01T02:14:06.948Z,0.00
2019-03-01T02:15:07.075Z,0.00
2019-03-01T02:16:07.206Z,0.00
2019-03-01T02:17:07.324Z,0.00
2019-03-01T02:18:07.456Z,0.00
2019-03-01T02:19:07.577Z,0.00
2019-03-01T02:20:07.713Z,0.00
2019-03-01T02:21:07.826Z,0.00
2019-03-01T02:22:07.952Z,0.00
2019-03-01T02:23:08.081Z,0.00
2019-03-01T02:24:08.212Z,0.00
2019-03-01T02:25:08.346Z,0.00
2019-03-01T02:26:08.467Z,0.00
2019-03-01T02:27:08.587Z,0.00
2019-03-01T02:28:08.720Z,0.00
2019-03-01T02:29:08.850Z,0.00
2019-03-01T02:30:08.973Z,0.00
2019-03-01T02:31:09.098Z,0.00
2019-03-01T02:32:09.235Z,0.00
2019-03-01T02:33:09.365Z,0.00
2019-03-01T02:34:09.498Z,0.00
2019-03-01T02:35:09.641Z,0.00
2019-03-01T02:36:09.748Z,0.00
2019-03-01T02:37:09.890Z,0.00
2019-03-01T02:38:10.061Z,0.00
2019-03-01T02:39:10.158Z,0.00
2019-03-01T02:40:10.285Z,0.00
2019-03-01T02:41:10.408Z,0.00
2019-03-01T02:42:10.534Z,0.00
2019-03-01T02:43:10.659Z,0.00
2019-03-01T02:44:10.792Z,0.00
2019-03-01T02:45:10.935Z,0.00
2019-03-01T02:46:11.043Z,0.00
2019-03-01T02:47:11.171Z,0.00
2019-03-01T02:48:11.301Z,0.00
2019-03-01T02:49:11.438Z,0.00
2019-03-01T02:50:11.577Z,0.00
2019-03-01T02:51:11.698Z,0.00
2019-03-01T02:52:11.835Z,0.00
2019-03-01T02:53:11.972Z,0.00
2019-03-01T02:54:12.085Z,0.00
2019-03-01T02:55:12.219Z,0.00
2019-03-01T02:56:12.344Z,0.00
2019-03-01T02:57:12.472Z,0.00
2019-03-01T02:58:12.604Z,0.00
2019-03-01T02:59:12.725Z,0.00
2019-03-01T03:00:12.854Z,0.00
2019-03-01T03:01:13.004Z,0.00
2019-03-01T03:02:13.119Z,0.00
2019-03-01T03:03:13.253Z,0.00
2019-03-01T03:04:13.380Z,0.00
2019-03-01T03:05:13.504Z,0.00
2019-03-01T03:06:13.643Z,0.00
2019-03-01T03:07:13.760Z,0.00
2019-03-01T03:08:13.893Z,0.00
2019-03-01T03:09:14.020Z,0.00
2019-03-01T03:10:14.155Z,0.00
2019-03-01T03:11:14.290Z,0.00
2019-03-01T03:12:14.413Z,0.00
2019-03-01T03:13:14.527Z,0.00
2019-03-01T03:14:14.650Z,0.00
2019-03-01T03:15:14.772Z,0.00
2019-03-01T03:16:14.905Z,0.00
2019-03-01T03:17:15.040Z,0.00
2019-03-01T03:18:15.175Z,0.00
2019-03-01T03:19:15.292Z,0.00
2019-03-01T03:20:15.427Z,0.00
2019-03-01T03:21:15.563Z,0.00
2019-03-01T03:22:15.684Z,0.00
2019-03-01T03:23:15.826Z,0.00
2019-03-01T03:24:15.953Z,0.00
2019-03-01T03:25:16.078Z,0.00
2019-03-01T03:26:16.215Z,0.00
2019-03-01T03:27:16.348Z,0.00
2019-03-01T03:28:16.467Z,0.00
2019-03-01T03:29:16.601Z,0.00
2019-03-01T03:30:16.733Z,0.00
2019-03-01T03:31:16.920Z,0.00
2019-03-01T03:32:16.992Z,0.00
2019-03-01T03:33:17.116Z,0.00
2019-03-01T03:34:17.258Z,0.00
2019-03-01T03:35:17.377Z,0.00
2019-03-01T03:36:17.505Z,0.00
2019-03-01T03:37:17.633Z,0.00
2019-03-01T03:38:17.761Z,0.00
2019-03-01T03:39:17.887Z,0.00
2019-03-01T03:40:18.017Z,0.00
2019-03-01T03:41:18.144Z,0.00
2019-03-01T03:42:18.278Z,0.00
2019-03-01T03:43:18.402Z,0.00
2019-03-01T03:44:18.529Z,0.00
2019-03-01T03:45:18.681Z,0.00
2019-03-01T03:46:18.801Z,0.00
2019-03-01T03:47:18.932Z,0.00
2019-03-01T03:48:19.050Z,0.00
2019-03-01T03:49:19.179Z,0.00
2019-03-01T03:50:19.310Z,0.00
2019-03-01T03:51:19.441Z,0.00
2019-03-01T03:52:19.570Z,0.00
2019-03-01T03:53:19.698Z,0.00
2019-03-01T03:54:19.834Z,0.00
2019-03-01T03:55:19.963Z,0.00
2019-03-01T03:56:20.081Z,0.00
2019-03-01T03:57:20.212Z,0.00
2019-03-01T03:58:20.343Z,0.00
2019-03-01T03:59:20.474Z,0.00
2019-03-01T04:00:20.603Z,0.00
2019-03-01T04:01:20.729Z,0.00
2019-03-01T04:02:20.883Z,0.00
2019-03-01T04:03:21.006Z,0.00
2019-03-01T04:04:21.128Z,0.00
2019-03-01T04:05:21.252Z,0.00
2019-03-01T04:06:21.388Z,0.00
2019-03-01T04:07:21.513Z,0.00
2019-03-01T04:08:21.641Z,0.00
2019-03-01T04:09:21.769Z,0.00
2019-03-01T04:10:21.897Z,0.00
2019-03-01T04:11:22.020Z,0.00
2019-03-01T04:12:22.155Z,0.00
2019-03-01T04:13:22.284Z,0.00
2019-03-01T04:14:22.408Z,0.00
2019-03-01T04:15:22.538Z,0.00
2019-03-01T04:16:22.669Z,0.00
2019-03-01T04:17:22.795Z,0.00
2019-03-01T04:18:22.936Z,0.00
2019-03-01T04:19:23.052Z,0.00
2019-03-01T04:20:23.186Z,0.00
2019-03-01T04:21:23.307Z,0.00
2019-03-01T04:22:23.439Z,0.00
2019-03-01T04:23:23.567Z,0.00
2019-03-01T04:24:23.694Z,0.00
2019-03-01T04:25:23.831Z,0.00
2019-03-01T04:26:23.957Z,0.00
2019-03-01T04:27:24.085Z,0.00
2019-03-01T04:28:24.212Z,0.00
2019-03-01T04:29:24.339Z,0.00
2019-03-01T04:30:24.463Z,0.00
2019-03-01T04:31:24.589Z,0.00
2019-03-01T04:32:24.721Z,0.00
2019-03-01T04:33:24.852Z,0.00
2019-03-01T04:34:24.980Z,0.00
2019-03-01T04:35:25.111Z,0.00
2019-03-01T04:36:25.257Z,0.00
2019-03-01T04:37:25.382Z,0.00
2019-03-01T04:38:25.521Z,0.00
2019-03-01T04:39:25.648Z,0.00
2019-03-01T04:40:25.794Z,0.00
2019-03-01T04:41:25.906Z,0.00
2019-03-01T04:42:26.032Z,0.00
2019-03-01T04:43:26.158Z,0.00
2019-03-01T04:44:26.291Z,0.00
2019-03-01T04:45:26.416Z,0.00
2019-03-01T04:46:26.546Z,0.00
2019-03-01T04:47:26.675Z,0.00
2019-03-01T04:48:26.804Z,0.00
2019-03-01T04:49:26.931Z,0.00
2019-03-01T04:50:27.064Z,0.00
2019-03-01T04:51:27.192Z,0.00
2019-03-01T04:52:27.312Z,0.00
2019-03-01T04:53:27.440Z,0.00
2019-03-01T04:54:27.574Z,0.00
2019-03-01T04:55:27.702Z,0.00
2019-03-01T04:56:27.830Z,0.00
2019-03-01T04:57:27.958Z,0.00
2019-03-01T04:58:28.088Z,0.00
2019-03-01T04:59:28.217Z,0.00
2019-03-01T05:00:28.346Z,0.00
2019-03-01T05:01:28.475Z,0.00
2019-03-01T05:02:28.610Z,0.00
2019-03-01T05:03:28.738Z,0.00
2019-03-01T05:04:28.866Z,0.00
2019-03-01T05:05:28.992Z,0.00
2019-03-01T05:06:29.123Z,0.00
2019-03-01T05:07:29.251Z,0.00
2019-03-01T05:08:29.379Z,0.00
2019-03-01T05:09:29.508Z,0.00
2019-03-01T05:10:29.634Z,0.00
2019-03-01T05:11:29.760Z,0.00
2019-03-01T05:12:29.894Z,0.00
2019-03-01T05:13:30.043Z,0.00
2019-03-01T05:14:30.150Z,0.00
2019-03-01T05:15:30.284Z,0.00
2019-03-01T05:16:30.405Z,0.00
2019-03-01T05:17:30.539Z,0.00
2019-03-01T05:18:30.676Z,0.00
2019-03-01T05:19:30.798Z,0.00
2019-03-01T05:20:31.193Z,0.00
2019-03-01T05:21:31.056Z,0.00
2019-03-01T05:22:31.186Z,0.00
2019-03-01T05:23:31.319Z,0.00
2019-03-01T05:24:31.439Z,0.00
2019-03-01T05:25:31.565Z,0.00
2019-03-01T05:26:31.705Z,0.00
2019-03-01T05:27:31.823Z,0.00
2019-03-01T05:28:31.950Z,0.00
2019-03-01T05:29:32.078Z,0.00
2019-03-01T05:30:32.213Z,0.00
2019-03-01T05:31:32.329Z,0.00
2019-03-01T05:32:32.453Z,0.00
2019-03-01T05:33:32.582Z,0.00
2019-03-01T05:34:32.711Z,0.00
2019-03-01T05:35:32.841Z,0.00
2019-03-01T05:36:32.969Z,0.00
2019-03-01T05:37:33.099Z,0.00
2019-03-01T05:38:33.221Z,0.00
2019-03-01T05:39:33.354Z,0.00
2019-03-01T05:40:33.490Z,0.00
2019-03-01T05:41:33.617Z,0.00
2019-03-01T05:42:33.735Z,0.00
2019-03-01T05:43:33.863Z,0.00
2019-03-01T05:44:33.998Z,0.00
2019-03-01T05:45:34.121Z,0.00
2019-03-01T05:46:34.250Z,0.00
2019-03-01T05:47:34.387Z,0.00
2019-03-01T05:48:34.508Z,4.00
2019-03-01T05:49:34.647Z,0.00
2019-03-01T05:50:34.772Z,4.00
2019-03-01T05:51:34.894Z,4.00
2019-03-01T05:52:35.056Z,4.00
2019-03-01T05:53:35.176Z,8.00
2019-03-01T05:54:35.286Z,4.00
2019-03-01T05:55:35.411Z,8.00
2019-03-01T05:56:35.550Z,8.00
2019-03-01T05:57:35.679Z,8.00
2019-03-01T05:58:35.812Z,12.00
2019-03-01T05:59:35.937Z,8.00
2019-03-01T06:00:36.067Z,12.00
2019-03-01T06:01:36.200Z,16.00
2019-03-01T06:02:36.313Z,20.00
2019-03-01T06:03:36.448Z,20.00
2019-03-01T06:04:36.566Z,24.00
2019-03-01T06:05:36.697Z,28.00
2019-03-01T06:06:36.826Z,24.00
2019-03-01T06:07:36.953Z,28.00
2019-03-01T06:08:37.097Z,24.00
2019-03-01T06:09:37.216Z,24.00
2019-03-01T06:10:37.346Z,24.00
2019-03-01T06:11:37.470Z,24.00
2019-03-01T06:12:37.608Z,28.00
2019-03-01T06:13:37.738Z,32.00
2019-03-01T06:14:37.867Z,40.00
2019-03-01T06:15:37.993Z,36.00
2019-03-01T06:16:40.117Z,40.00
2019-03-01T06:17:38.265Z,36.00
2019-03-01T06:18:38.390Z,40.00
2019-03-01T06:19:38.517Z,36.00
2019-03-01T06:20:38.650Z,36.00
2019-03-01T06:21:38.779Z,40.00
2019-03-01T06:22:38.909Z,48.00
2019-03-01T06:23:39.049Z,52.00
2019-03-01T06:24:39.166Z,64.00
2019-03-01T06:25:39.306Z,76.00
2019-03-01T06:26:39.431Z,84.00
2019-03-01T06:27:39.559Z,104.00
2019-03-01T06:28:39.690Z,116.00
2019-03-01T06:29:39.818Z,132.00
2019-03-01T06:30:39.946Z,156.00
2019-03-01T06:31:40.071Z,180.00
2019-03-01T06:32:42.164Z,188.00
2019-03-01T06:33:40.327Z,156.00
2019-03-01T06:34:40.463Z,140.00
2019-03-01T06:35:40.582Z,164.00
2019-03-01T06:36:40.713Z,164.00
2019-03-01T06:37:40.839Z,132.00
2019-03-01T06:38:40.961Z,116.00
2019-03-01T06:39:41.102Z,112.00
2019-03-01T06:40:41.232Z,100.00
2019-03-01T06:41:41.362Z,100.00
2019-03-01T06:42:41.498Z,100.00
2019-03-01T06:43:41.614Z,104.00
2019-03-01T06:44:41.749Z,120.00
2019-03-01T06:45:41.879Z,128.00
2019-03-01T06:46:42.010Z,148.00
2019-03-01T06:47:42.135Z,164.00
2019-03-01T06:48:42.271Z,148.00
2019-03-01T06:49:42.410Z,132.00
2019-03-01T06:50:42.539Z,128.00
2019-03-01T06:51:42.668Z,132.00
2019-03-01T06:52:42.801Z,144.00
2019-03-01T06:53:42.931Z,160.00
2019-03-01T06:54:43.058Z,168.00
2019-03-01T06:55:43.188Z,180.00
2019-03-01T06:56:43.312Z,228.00
2019-03-01T06:57:43.438Z,284.00
2019-03-01T06:58:43.567Z,316.00
2019-03-01T06:59:43.695Z,324.00
2019-03-01T07:00:50.146Z,320.00
2019-03-01T07:01:43.956Z,320.00
2019-03-01T07:02:44.071Z,312.00
2019-03-01T07:03:44.206Z,320.00
2019-03-01T07:04:44.344Z,320.00
2019-03-01T07:05:44.461Z,304.00
2019-03-01T07:06:44.595Z,276.00
2019-03-01T07:07:44.722Z,260.00
2019-03-01T07:08:44.849Z,288.00
2019-03-01T07:09:44.973Z,288.00
2019-03-01T07:10:45.102Z,300.00
2019-03-01T07:11:45.230Z,316.00
2019-03-01T07:12:45.376Z,324.00
2019-03-01T07:13:45.495Z,288.00
2019-03-01T07:14:45.627Z,260.00
2019-03-01T07:15:45.751Z,224.00
2019-03-01T07:16:45.894Z,228.00
2019-03-01T07:17:46.005Z,248.00
2019-03-01T07:18:46.138Z,268.00
2019-03-01T07:19:46.262Z,292.00
2019-03-01T07:20:46.389Z,312.00
2019-03-01T07:21:46.525Z,320.00
2019-03-01T07:22:46.648Z,320.00
2019-03-01T07:23:46.779Z,332.00
2019-03-01T07:24:46.912Z,364.00
2019-03-01T07:25:47.038Z,400.00
2019-03-01T07:26:47.167Z,404.00
2019-03-01T07:27:47.297Z,428.00
2019-03-01T07:28:47.432Z,448.00
2019-03-01T07:29:47.554Z,456.00
2019-03-01T07:30:47.727Z,464.00
2019-03-01T07:31:47.826Z,476.00
2019-03-01T07:32:47.946Z,492.00
2019-03-01T07:33:48.076Z,516.00
2019-03-01T07:34:48.209Z,532.00
2019-03-01T07:35:48.337Z,544.00
2019-03-01T07:36:48.466Z,596.00
2019-03-01T07:37:48.598Z,652.00
2019-03-01T07:38:48.719Z,608.00
2019-03-01T07:39:48.860Z,540.00
2019-03-01T07:40:48.986Z,524.00
2019-03-01T07:41:49.593Z,544.00
2019-03-01T07:42:49.248Z,580.00
2019-03-01T07:43:49.379Z,576.00
2019-03-01T07:44:49.516Z,544.00
2019-03-01T07:45:49.653Z,576.00
2019-03-01T07:46:53.075Z,644.00
2019-03-01T07:47:49.891Z,708.00
2019-03-01T07:48:50.024Z,728.00
2019-03-01T07:49:50.151Z,780.00
2019-03-01T07:50:52.481Z,860.00
2019-03-01T07:51:50.413Z,840.00
2019-03-01T07:52:50.538Z,808.00
2019-03-01T07:53:50.696Z,816.00
2019-03-01T07:54:52.755Z,896.00
2019-03-01T07:55:50.942Z,992.00
2019-03-01T07:56:51.048Z,1020.00
2019-03-01T07:57:51.181Z,956.00
2019-03-01T07:58:51.308Z,960.00
2019-03-01T07:59:51.448Z,1044.00
2019-03-01T08:00:53.547Z,1060.00
2019-03-01T08:01:51.705Z,1020.00
2019-03-01T08:02:51.836Z,916.00
2019-03-01T08:03:53.189Z,860.00
2019-03-01T08:04:52.105Z,928.00
2019-03-01T08:05:52.225Z,968.00
2019-03-01T08:06:52.354Z,972.00
2019-03-01T08:07:56.199Z,960.00
2019-03-01T08:08:52.611Z,960.00
2019-03-01T08:09:54.217Z,944.00
2019-03-01T08:10:53.531Z,920.00
2019-03-01T08:11:52.997Z,968.00
2019-03-01T08:12:53.134Z,1024.00
2019-03-01T08:13:54.261Z,1056.00
2019-03-01T08:14:53.381Z,1076.00
2019-03-01T08:15:53.511Z,1076.00
2019-03-01T08:16:56.052Z,1048.00
2019-03-01T08:17:53.752Z,1032.00
2019-03-01T08:18:53.887Z,1044.00
2019-03-01T08:19:54.928Z,1016.00
2019-03-01T08:20:54.148Z,1052.00
2019-03-01T08:21:54.289Z,1128.00
2019-03-01T08:22:56.855Z,1216.00
2019-03-01T08:23:54.557Z,1224.00
2019-03-01T08:24:54.691Z,1200.00
2019-03-01T08:25:55.644Z,1284.00
2019-03-01T08:26:56.962Z,1432.00
2019-03-01T08:27:55.064Z,1496.00
2019-03-01T08:28:58.425Z,1724.00
2019-03-01T08:29:55.344Z,1824.00
2019-03-01T08:30:55.477Z,1780.00
2019-03-01T08:31:56.637Z,1820.00
2019-03-01T08:32:55.732Z,1784.00
2019-03-01T08:33:55.867Z,1692.00
2019-03-01T08:34:55.990Z,1604.00
2019-03-01T08:35:56.114Z,1456.00
2019-03-01T08:36:56.243Z,1448.00
2019-03-01T08:37:56.380Z,1484.00
2019-03-01T08:38:56.501Z,1468.00
2019-03-01T08:39:56.629Z,1544.00
2019-03-01T08:40:56.754Z,1644.00
2019-03-01T08:41:59.979Z,1832.00
2019-03-01T08:42:57.015Z,2076.00
2019-03-01T08:43:57.150Z,2424.00
2019-03-01T08:44:58.287Z,2684.00
2019-03-01T08:45:57.397Z,2860.00
2019-03-01T08:46:57.527Z,2952.00
2019-03-01T08:47:58.839Z,2848.00
2019-03-01T08:48:57.791Z,2600.00
2019-03-01T08:49:57.920Z,2488.00
2019-03-01T08:50:58.566Z,2476.00
2019-03-01T08:51:58.537Z,2452.00
2019-03-01T08:52:58.585Z,2624.00
2019-03-01T08:53:58.449Z,2880.00
2019-03-01T08:55:00.127Z,2976.00
2019-03-01T08:55:58.697Z,2932.00
2019-03-01T08:56:58.831Z,2824.00
2019-03-01T08:58:02.909Z,2568.00
2019-03-01T08:58:59.083Z,2296.00
2019-03-01T08:59:59.209Z,2036.00
2019-03-01T09:01:00.053Z,1904.00
2019-03-01T09:01:59.477Z,1752.00
2019-03-01T09:02:59.614Z,1508.00
2019-03-01T09:03:59.742Z,1248.00
2019-03-01T09:04:59.875Z,1140.00
2019-03-01T09:06:00.009Z,1200.00
2019-03-01T09:07:00.125Z,1448.00
2019-03-01T09:08:00.253Z,1676.00
2019-03-01T09:09:00.781Z,1804.00
2019-03-01T09:10:00.524Z,1872.00
2019-03-01T09:11:00.642Z,1784.00
2019-03-01T09:12:00.778Z,1692.00
2019-03-01T09:13:00.918Z,1592.00
2019-03-01T09:14:01.035Z,1528.00
2019-03-01T09:15:04.566Z,1568.00
2019-03-01T09:16:01.286Z,1636.00
2019-03-01T09:17:01.423Z,1868.00
2019-03-01T09:18:01.559Z,2044.00
2019-03-01T09:19:01.686Z,2072.00
2019-03-01T09:20:01.812Z,2332.00
2019-03-01T09:21:05.653Z,2712.00
2019-03-01T09:22:02.092Z,3000.00
2019-03-01T09:23:03.315Z,3376.00
2019-03-01T09:24:02.340Z,3496.00
2019-03-01T09:25:06.353Z,3936.00
2019-03-01T09:26:02.601Z,3872.00
2019-03-01T09:27:02.733Z,3676.00
2019-03-01T09:28:02.849Z,3364.00
2019-03-01T09:29:02.981Z,3008.00
2019-03-01T09:30:03.913Z,2776.00
2019-03-01T09:31:03.246Z,2632.00
2019-03-01T09:32:03.371Z,2648.00
2019-03-01T09:33:03.499Z,2840.00
2019-03-01T09:34:03.625Z,2864.00
2019-03-01T09:35:04.324Z,2996.00
2019-03-01T09:36:03.882Z,3128.00
2019-03-01T09:37:04.017Z,3540.00
2019-03-01T09:38:04.634Z,4084.00
2019-03-01T09:39:04.278Z,4304.00
2019-03-01T09:40:05.805Z,4484.00
2019-03-01T09:41:05.441Z,4780.00
2019-03-01T09:42:06.379Z,5644.00
2019-03-01T09:43:04.801Z,6340.00
2019-03-01T09:44:04.935Z,5972.00
2019-03-01T09:45:05.058Z,5240.00
2019-03-01T09:46:05.192Z,5664.00
2019-03-01T09:47:05.320Z,6248.00
2019-03-01T09:48:08.614Z,6920.00
2019-03-01T09:49:05.581Z,6820.00
2019-03-01T09:50:05.708Z,5780.00
2019-03-01T09:51:07.224Z,4220.00
2019-03-01T09:52:05.981Z,4000.00
2019-03-01T09:53:06.122Z,4260.00
2019-03-01T09:54:06.535Z,4584.00
2019-03-01T09:55:06.378Z,4020.00
2019-03-01T09:56:09.740Z,3680.00
2019-03-01T09:57:06.646Z,3508.00
2019-03-01T09:58:08.346Z,3076.00
2019-03-01T09:59:06.907Z,2792.00
2019-03-01T10:00:07.046Z,2520.00
2019-03-01T10:01:07.165Z,2376.00
2019-03-01T10:02:07.301Z,2500.00
2019-03-01T10:03:07.449Z,2360.00
2019-03-01T10:04:07.560Z,2352.00
2019-03-01T10:05:07.709Z,2264.00
2019-03-01T10:06:07.820Z,2692.00
2019-03-01T10:07:07.949Z,3760.00
2019-03-01T10:08:08.077Z,4104.00
2019-03-01T10:09:08.214Z,3236.00
2019-03-01T10:10:08.346Z,3900.00
2019-03-01T10:11:08.473Z,4416.00
2019-03-01T10:12:08.610Z,4796.00
2019-03-01T10:13:08.739Z,5124.00
2019-03-01T10:14:08.868Z,5696.00
2019-03-01T10:15:08.999Z,5924.00
2019-03-01T10:16:09.127Z,6212.00
2019-03-01T10:17:09.253Z,7216.00
2019-03-01T10:18:09.395Z,7424.00
2019-03-01T10:19:09.521Z,7200.00
2019-03-01T10:20:09.660Z,7068.00
2019-03-01T10:21:09.794Z,7120.00
2019-03-01T10:22:09.927Z,7176.00
2019-03-01T10:23:10.059Z,7392.00
2019-03-01T10:24:10.177Z,7300.00
2019-03-01T10:25:10.299Z,7156.00
2019-03-01T10:26:10.435Z,7084.00
2019-03-01T10:27:10.568Z,7380.00
2019-03-01T10:28:10.702Z,7832.00
2019-03-01T10:29:10.846Z,7448.00
2019-03-01T10:30:10.967Z,6416.00
2019-03-01T10:31:11.102Z,5396.00
2019-03-01T10:32:12.483Z,4608.00
2019-03-01T10:33:11.360Z,4100.00
2019-03-01T10:34:11.487Z,3892.00
2019-03-01T10:35:11.630Z,4032.00
2019-03-01T10:36:11.758Z,4336.00
2019-03-01T10:37:11.895Z,4596.00
2019-03-01T10:38:12.029Z,4708.00
2019-03-01T10:39:12.162Z,4696.00
2019-03-01T10:40:12.289Z,4592.00
2019-03-01T10:41:12.428Z,4412.00
2019-03-01T10:42:12.554Z,4208.00
2019-03-01T10:43:12.691Z,4656.00
2019-03-01T10:44:12.818Z,4892.00
2019-03-01T10:45:12.954Z,5092.00
2019-03-01T10:46:13.087Z,5484.00
2019-03-01T10:47:13.211Z,5928.00
2019-03-01T10:48:13.339Z,6040.00
2019-03-01T10:49:13.478Z,5984.00
2019-03-01T10:50:13.603Z,6104.00
2019-03-01T10:51:13.731Z,6028.00
2019-03-01T10:52:13.876Z,5716.00
2019-03-01T10:53:14.039Z,5488.00
2019-03-01T10:54:14.134Z,5284.00
2019-03-01T10:55:14.259Z,5084.00
2019-03-01T10:56:14.390Z,5008.00
2019-03-01T10:57:14.516Z,4860.00
2019-03-01T10:58:14.646Z,4668.00
2019-03-01T10:59:14.783Z,4644.00
2019-03-01T11:00:14.911Z,4952.00
2019-03-01T11:01:15.047Z,5672.00
2019-03-01T11:02:15.167Z,6052.00
2019-03-01T11:03:15.297Z,5964.00
2019-03-01T11:04:15.427Z,5276.00
2019-03-01T11:05:15.552Z,4624.00
2019-03-01T11:06:15.692Z,4084.00
2019-03-01T11:07:15.818Z,3756.00
2019-03-01T11:08:15.949Z,3556.00
2019-03-01T11:09:16.092Z,3324.00
2019-03-01T11:10:16.215Z,2868.00
2019-03-01T11:11:16.350Z,2440.00
2019-03-01T11:12:16.481Z,2080.00
2019-03-01T11:13:16.615Z,1784.00
2019-03-01T11:14:16.748Z,1564.00
2019-03-01T11:15:16.882Z,1420.00
2019-03-01T11:16:17.011Z,1356.00
2019-03-01T11:17:17.142Z,1324.00
2019-03-01T11:18:17.287Z,1272.00
2019-03-01T11:19:17.411Z,1200.00
2019-03-01T11:20:17.542Z,1176.00
2019-03-01T11:21:17.690Z,1256.00
2019-03-01T11:22:17.822Z,1444.00
2019-03-01T11:23:17.946Z,1632.00
2019-03-01T11:24:18.076Z,1856.00
2019-03-01T11:25:18.207Z,2256.00
2019-03-01T11:26:18.339Z,2620.00
2019-03-01T11:27:18.481Z,2968.00
2019-03-01T11:28:18.603Z,3128.00
2019-03-01T11:29:18.736Z,3072.00
2019-03-01T11:30:18.862Z,3008.00
2019-03-01T11:31:18.990Z,2912.00
2019-03-01T11:32:19.127Z,2936.00
2019-03-01T11:33:19.261Z,2920.00
2019-03-01T11:34:19.393Z,2880.00
2019-03-01T11:35:19.530Z,2984.00
2019-03-01T11:36:19.671Z,3120.00
2019-03-01T11:37:19.782Z,3120.00
2019-03-01T11:38:19.925Z,3104.00
2019-03-01T11:39:20.051Z,3152.00
2019-03-01T11:40:20.183Z,3284.00
2019-03-01T11:41:20.370Z,3508.00
2019-03-01T11:42:20.477Z,3828.00
2019-03-01T11:43:20.619Z,4380.00
2019-03-01T11:44:20.747Z,5088.00
2019-03-01T11:45:20.875Z,5408.00
2019-03-01T11:46:21.019Z,5392.00
2019-03-01T11:47:21.149Z,5344.00
2019-03-01T11:48:21.292Z,5864.00
2019-03-01T11:49:21.418Z,7176.00
2019-03-01T11:50:21.552Z,8752.00
2019-03-01T11:51:21.679Z,11604.00
2019-03-01T11:52:21.825Z,24160.00
2019-03-01T11:53:21.946Z,19488.00
2019-03-01T11:54:22.082Z,20448.00
2019-03-01T11:55:22.214Z,20256.00
2019-03-01T11:56:22.353Z,10140.00
2019-03-01T11:57:22.475Z,9004.00
2019-03-01T11:58:22.607Z,7764.00
2019-03-01T11:59:22.745Z,6468.00
2019-03-01T12:00:22.874Z,5724.00
2019-03-01T12:01:23.010Z,5404.00
2019-03-01T12:02:23.143Z,5132.00
2019-03-01T12:03:23.272Z,4816.00
2019-03-01T12:04:23.417Z,4552.00
2019-03-01T12:05:23.555Z,4580.00
2019-03-01T12:06:23.690Z,4900.00
2019-03-01T12:07:23.819Z,5492.00
2019-03-01T12:08:23.950Z,6144.00
2019-03-01T12:09:24.075Z,6752.00
2019-03-01T12:10:24.206Z,7692.00
2019-03-01T12:11:24.338Z,10816.00
2019-03-01T12:12:24.484Z,20992.00
2019-03-01T12:13:24.604Z,51808.00
2019-03-01T12:14:24.742Z,40544.00
2019-03-01T12:15:24.876Z,21184.00
2019-03-01T12:16:25.009Z,19584.00
2019-03-01T12:17:25.142Z,17984.00
2019-03-01T12:18:25.279Z,16224.00
2019-03-01T12:19:25.417Z,28864.00
2019-03-01T12:20:25.545Z,26176.00
2019-03-01T12:21:25.675Z,23008.00
2019-03-01T12:22:25.825Z,10204.00
2019-03-01T12:23:25.947Z,8256.00
2019-03-01T12:24:26.076Z,7316.00
2019-03-01T12:25:26.211Z,6764.00
2019-03-01T12:26:26.357Z,6408.00
2019-03-01T12:27:26.488Z,5892.00
2019-03-01T12:28:26.620Z,5232.00
2019-03-01T12:29:26.766Z,4852.00
2019-03-01T12:30:26.901Z,4608.00
2019-03-01T12:31:27.033Z,5092.00
2019-03-01T12:32:27.163Z,5284.00
2019-03-01T12:33:27.357Z,5000.00
2019-03-01T12:34:27.472Z,5040.00
2019-03-01T12:35:27.599Z,4808.00
2019-03-01T12:36:27.723Z,4320.00
2019-03-01T12:37:27.861Z,3876.00
2019-03-01T12:38:27.995Z,3556.00
2019-03-01T12:39:28.130Z,3336.00
2019-03-01T12:40:28.262Z,3268.00
2019-03-01T12:41:28.396Z,3444.00
2019-03-01T12:42:28.525Z,3728.00
2019-03-01T12:43:28.655Z,4016.00
2019-03-01T12:44:28.778Z,4156.00